Time;durP1;ratioP1;P1;durP2;ratioP2;P2;SDS_P1;SDS_P2;PMS_P1;PMS_P2;Temp;Humidity;BMP_temperature;BMP_pressure;BME280_temperature;BME280_humidity;BME280_pressure;Samples;Min_cycle;Max_cycle;Signal;HPM_P1;HPM_P2
2021/11/07 00:00:37;;;;;;;3.75;1.70;;;19.40;57.80;;;;;;6217407;23;20509;-80
2021/11/07 00:03:10;;;;;;;2.88;1.90;;;19.40;57.60;;;;;;6192564;23;20216;-81
2021/11/07 00:05:43;;;;;;;1.98;1.55;;;19.40;57.60;;;;;;6217229;23;20152;-81
2021/11/07 00:08:24;;;;;;;3.90;1.70;;;19.40;57.70;;;;;;6192406;23;20197;-80
2021/11/07 00:10:55;;;;;;;2.80;1.70;;;19.40;57.70;;;;;;6194022;23;20597;-80
2021/11/07 00:13:24;;;;;;;2.10;1.70;;;19.40;57.80;;;;;;6217239;23;20161;-80
2021/11/07 00:15:50;;;;;;;2.40;1.80;;;19.40;57.70;;;;;;6191678;23;20130;-80
2021/11/07 00:18:20;;;;;;;2.63;1.60;;;19.40;58.00;;;;;;6217152;23;20134;-80
2021/11/07 00:20:52;;;;;;;2.17;1.70;;;19.40;58.00;;;;;;6192679;23;20453;-80
2021/11/07 00:23:28;;;;;;;2.88;1.83;;;19.40;57.60;;;;;;6217288;23;20245;-80
2021/11/07 00:26:01;;;;;;;1.83;1.67;;;19.40;57.60;;;;;;6215620;23;20203;-80
2021/11/07 00:28:36;;;;;;;2.53;1.67;;;19.40;57.70;;;;;;6216967;23;20166;-80
2021/11/07 00:34:29;;;;;;;1.85;1.60;;;19.40;57.80;;;;;;6216047;23;20578;-80
2021/11/07 00:36:35;;;;;;;1.92;1.65;;;19.40;57.60;;;;;;6217164;23;20227;-80
2021/11/07 00:39:28;;;;;;;1.98;1.77;;;19.40;57.60;;;;;;6216958;23;20157;-80
2021/11/07 00:41:59;;;;;;;2.30;1.52;;;19.40;57.60;;;;;;6216833;23;20161;-81
2021/11/07 00:44:48;;;;;;;2.88;1.77;;;19.40;57.60;;;;;;6217324;23;20122;-80
2021/11/07 00:47:32;;;;;;;2.50;1.90;;;19.40;57.50;;;;;;6216628;23;20644;-80
2021/11/07 00:50:00;;;;;;;2.10;1.45;;;19.30;57.80;;;;;;6216837;23;20593;-79
2021/11/07 00:55:17;;;;;;;2.10;1.83;;;19.40;57.50;;;;;;6216778;23;20141;-80
2021/11/07 00:57:54;;;;;;;2.42;1.70;;;19.40;57.80;;;;;;6190437;23;20142;-81
2021/11/07 01:01:01;;;;;;;2.17;1.67;;;19.40;57.60;;;;;;6216901;23;20660;-80
2021/11/07 01:03:12;;;;;;;2.65;1.70;;;19.40;57.50;;;;;;6194430;23;20545;-81
2021/11/07 01:05:38;;;;;;;3.60;1.85;;;19.40;57.60;;;;;;6217080;23;20134;-80
2021/11/07 01:08:04;;;;;;;2.15;1.60;;;19.40;57.60;;;;;;6216802;23;20680;-79
2021/11/07 01:10:30;;;;;;;1.88;1.50;;;19.30;57.50;;;;;;6216660;23;20138;-79
2021/11/07 01:12:57;;;;;;;2.53;1.70;;;19.40;57.70;;;;;;6216984;23;20209;-79
2021/11/07 01:15:24;;;;;;;2.13;1.70;;;19.30;57.60;;;;;;6216926;23;20169;-80
2021/11/07 01:17:50;;;;;;;2.45;1.95;;;19.40;57.70;;;;;;6190496;23;20169;-81
2021/11/07 01:20:19;;;;;;;2.42;1.67;;;19.40;57.90;;;;;;6190592;23;20439;-81
2021/11/07 01:22:58;;;;;;;2.22;1.60;;;19.40;57.70;;;;;;6216484;23;20176;-80
2021/11/07 01:25:25;;;;;;;1.92;1.60;;;19.30;57.50;;;;;;6216474;23;20213;-80
2021/11/07 01:27:52;;;;;;;4.28;1.67;;;19.30;58.10;;;;;;6190219;23;20688;-81
2021/11/07 01:30:20;;;;;;;1.88;1.70;;;19.30;57.50;;;;;;6214951;23;20150;-81
2021/11/07 01:32:50;;;;;;;3.85;1.80;;;19.30;57.50;;;;;;6190388;23;20489;-80
2021/11/07 01:35:31;;;;;;;2.45;1.60;;;19.30;57.40;;;;;;6216889;23;20131;-79
2021/11/07 01:38:10;;;;;;;2.28;1.58;;;19.40;57.70;;;;;;6216856;23;20127;-81
2021/11/07 01:40:42;;;;;;;2.25;1.70;;;19.30;57.60;;;;;;6216097;23;20611;-80
2021/11/07 01:43:08;;;;;;;3.78;1.88;;;19.30;57.50;;;;;;6216509;23;20137;-80
2021/11/07 01:45:40;;;;;;;2.38;1.83;;;19.30;57.60;;;;;;6216628;23;20146;-80
2021/11/07 01:48:10;;;;;;;2.30;1.60;;;19.30;57.50;;;;;;6216232;23;20176;-80
2021/11/07 01:50:41;;;;;;;2.40;1.80;;;19.30;57.60;;;;;;6189660;23;20482;-80
2021/11/07 01:53:18;;;;;;;2.17;1.73;;;19.30;57.50;;;;;;6216186;23;20141;-80
2021/11/07 01:55:44;;;;;;;2.35;1.55;;;19.30;57.50;;;;;;6216164;23;20134;-80
2021/11/07 01:58:10;;;;;;;2.00;1.73;;;19.30;57.50;;;;;;6216263;23;20579;-80
2021/11/07 02:00:36;;;;;;;1.95;1.48;;;19.30;57.50;;;;;;6216544;23;20145;-80
2021/11/07 02:03:01;;;;;;;1.60;1.50;;;19.30;57.50;;;;;;6216113;23;20184;-80
2021/11/07 02:05:27;;;;;;;2.80;1.75;;;19.30;57.50;;;;;;6189830;23;20137;-79
2021/11/07 02:07:54;;;;;;;1.95;1.48;;;19.30;57.50;;;;;;6216094;23;20169;-80
2021/11/07 02:10:19;;;;;;;1.58;1.35;;;19.20;57.50;;;;;;6215829;23;20193;-79
2021/11/07 02:12:45;;;;;;;2.28;1.73;;;19.30;57.50;;;;;;6216185;23;20563;-80
2021/11/07 02:15:12;;;;;;;2.25;1.65;;;19.30;57.50;;;;;;6189579;23;20269;-81
2021/11/07 02:17:38;;;;;;;2.40;1.80;;;19.30;57.50;;;;;;6190194;23;20130;-80
2021/11/07 02:20:06;;;;;;;1.98;1.63;;;19.30;57.50;;;;;;6189563;23;20145;-80
2021/11/07 02:22:32;;;;;;;2.47;1.60;;;19.30;57.50;;;;;;6189578;23;20184;-80
2021/11/07 02:24:57;;;;;;;2.05;1.42;;;19.30;57.50;;;;;;6189774;23;20138;-80
2021/11/07 02:27:24;;;;;;;2.30;1.60;;;19.30;57.50;;;;;;6215961;23;20170;-79
2021/11/07 02:29:51;;;;;;;2.03;1.60;;;19.30;57.50;;;;;;6216174;23;20131;-80
2021/11/07 02:32:16;;;;;;;2.20;1.73;;;19.30;57.50;;;;;;6216291;23;20142;-80
2021/11/07 02:34:42;;;;;;;1.90;1.70;;;19.30;57.50;;;;;;6215905;23;20157;-80
2021/11/07 02:37:08;;;;;;;2.42;1.80;;;19.30;57.50;;;;;;6215756;23;20134;-80
2021/11/07 02:39:33;;;;;;;2.38;1.60;;;19.30;57.60;;;;;;6216162;23;20148;-80
2021/11/07 02:41:59;;;;;;;2.75;1.67;;;19.30;57.50;;;;;;6216095;23;20505;-80
2021/11/07 02:44:33;;;;;;;2.10;1.70;;;19.30;57.50;;;;;;6216256;23;20211;-80
2021/11/07 02:47:01;;;;;;;2.05;1.60;;;19.30;57.60;;;;;;6214160;23;20172;-80
2021/11/07 02:49:26;;;;;;;2.15;1.67;;;19.30;57.50;;;;;;6216135;23;20165;-80
2021/11/07 02:51:55;;;;;;;2.20;1.50;;;19.20;57.40;;;;;;6215858;23;20558;-81
2021/11/07 02:54:21;;;;;;;2.03;1.70;;;19.20;57.40;;;;;;6189151;23;20146;-81
2021/11/07 02:56:49;;;;;;;2.95;1.95;;;19.30;57.50;;;;;;6215997;23;20143;-80
2021/11/07 02:59:21;;;;;;;2.05;1.48;;;19.30;57.50;;;;;;6216091;23;20165;-81
2021/11/07 03:01:48;;;;;;;1.83;1.23;;;19.30;57.50;;;;;;6215562;23;20493;-80
2021/11/07 03:04:14;;;;;;;2.05;1.67;;;19.30;57.50;;;;;;6215971;23;20207;-80
2021/11/07 03:06:40;;;;;;;1.75;1.45;;;19.30;57.50;;;;;;6215862;23;20143;-80
2021/11/07 03:09:07;;;;;;;1.77;1.60;;;19.30;57.50;;;;;;6215309;23;20197;-81
2021/11/07 03:11:39;;;;;;;2.60;1.80;;;19.30;57.50;;;;;;6215847;23;20173;-80
2021/11/07 03:14:06;;;;;;;2.03;1.58;;;19.20;57.50;;;;;;6215870;23;20566;-81
2021/11/07 03:16:31;;;;;;;2.72;1.95;;;19.30;57.50;;;;;;6215583;23;20142;-80
2021/11/07 03:18:57;;;;;;;2.22;1.88;;;19.20;57.50;;;;;;6215974;23;20616;-81
2021/11/07 03:21:23;;;;;;;2.25;1.63;;;19.20;57.40;;;;;;6189125;23;20134;-80
2021/11/07 03:23:50;;;;;;;2.55;1.67;;;19.30;57.50;;;;;;6215475;23;20214;-80
2021/11/07 03:26:21;;;;;;;3.25;1.65;;;19.30;57.50;;;;;;6215687;23;20138;-80
2021/11/07 03:28:49;;;;;;;1.95;1.60;;;19.30;57.50;;;;;;6215313;23;20497;-80
2021/11/07 03:31:31;;;;;;;2.25;1.73;;;19.30;57.50;;;;;;6215542;23;20895;-81
2021/11/07 03:34:00;;;;;;;2.00;1.60;;;19.20;57.50;;;;;;6215889;23;20137;-80
2021/11/07 03:36:26;;;;;;;2.40;1.58;;;19.30;57.50;;;;;;6190360;23;20584;-80
2021/11/07 03:38:53;;;;;;;2.00;1.65;;;19.20;57.40;;;;;;6215528;23;20139;-80
2021/11/07 03:41:19;;;;;;;2.13;1.65;;;19.20;57.40;;;;;;6215763;23;20470;-80
2021/11/07 03:43:45;;;;;;;1.88;1.70;;;19.20;57.50;;;;;;6188909;23;20131;-81
2021/11/07 03:46:11;;;;;;;2.22;1.70;;;19.20;57.50;;;;;;6215512;23;20665;-81
2021/11/07 03:48:37;;;;;;;2.40;1.60;;;19.30;57.50;;;;;;6215446;23;20166;-80
2021/11/07 03:51:05;;;;;;;1.95;1.50;;;19.20;57.50;;;;;;6215533;23;20138;-81
2021/11/07 03:53:31;;;;;;;1.90;1.70;;;19.20;57.50;;;;;;6215466;23;20558;-79
2021/11/07 03:55:56;;;;;;;3.05;1.52;;;19.20;57.50;;;;;;6215482;23;20209;-80
2021/11/07 03:58:22;;;;;;;2.63;1.42;;;19.20;57.50;;;;;;6215436;23;20458;-80
2021/11/07 04:00:49;;;;;;;2.20;1.80;;;19.20;57.50;;;;;;6189428;23;20180;-80
2021/11/07 04:03:15;;;;;;;1.98;1.58;;;19.30;57.50;;;;;;6215696;23;20139;-80
2021/11/07 04:05:40;;;;;;;3.28;1.80;;;19.20;57.50;;;;;;6215310;23;20130;-80
2021/11/07 04:08:07;;;;;;;2.78;1.67;;;19.20;57.50;;;;;;6215743;23;20177;-80
2021/11/07 04:10:34;;;;;;;2.10;1.63;;;19.20;57.60;;;;;;6215649;23;20142;-80
2021/11/07 04:13:00;;;;;;;2.17;1.83;;;19.20;57.50;;;;;;6215579;23;20131;-80
2021/11/07 04:15:26;;;;;;;2.22;1.52;;;19.20;57.50;;;;;;6164744;23;20142;-81
2021/11/07 04:17:52;;;;;;;2.55;1.50;;;19.20;57.50;;;;;;6190630;23;20172;-79
2021/11/07 04:20:18;;;;;;;1.92;1.70;;;19.20;57.50;;;;;;6190835;23;20574;-81
2021/11/07 04:22:46;;;;;;;1.83;1.60;;;19.20;57.50;;;;;;6217484;23;20145;-80
2021/11/07 04:25:12;;;;;;;1.83;1.63;;;19.20;57.50;;;;;;6217032;23;20130;-80
2021/11/07 04:27:37;;;;;;;1.60;1.40;;;19.20;57.50;;;;;;6217259;23;20170;-81
2021/11/07 04:30:04;;;;;;;1.77;1.63;;;19.20;57.50;;;;;;6166142;23;20138;-80
2021/11/07 04:32:30;;;;;;;2.28;1.77;;;19.20;57.50;;;;;;6217063;23;20130;-80
2021/11/07 04:34:56;;;;;;;2.17;1.70;;;19.20;57.50;;;;;;6217168;23;20192;-80
2021/11/07 04:37:22;;;;;;;1.83;1.40;;;19.20;57.50;;;;;;6216967;23;20176;-80
2021/11/07 04:39:48;;;;;;;2.47;1.70;;;19.20;57.50;;;;;;6217057;23;20176;-80
2021/11/07 04:42:14;;;;;;;1.75;1.50;;;19.20;57.50;;;;;;6217312;23;20217;-81
2021/11/07 04:44:39;;;;;;;1.92;1.77;;;19.20;57.50;;;;;;6216925;23;20545;-81
2021/11/07 04:47:05;;;;;;;2.00;1.50;;;19.20;57.50;;;;;;6216952;23;20172;-81
2021/11/07 04:49:31;;;;;;;3.13;1.52;;;19.20;57.50;;;;;;6216962;23;20137;-80
2021/11/07 04:51:58;;;;;;;2.15;1.58;;;19.20;57.50;;;;;;6216904;23;20169;-80
2021/11/07 04:54:23;;;;;;;2.33;1.80;;;19.20;57.50;;;;;;6216925;23;20130;-80
2021/11/07 04:56:49;;;;;;;3.00;1.52;;;19.20;57.50;;;;;;6217203;23;20145;-79
2021/11/07 04:59:15;;;;;;;2.05;1.65;;;19.20;57.50;;;;;;6217551;23;20127;-81
2021/11/07 05:01:41;;;;;;;1.67;1.50;;;19.20;57.50;;;;;;6216803;23;20130;-81
2021/11/07 05:04:08;;;;;;;2.10;1.77;;;19.20;57.40;;;;;;6216746;23;20558;-80
2021/11/07 05:06:34;;;;;;;2.47;1.40;;;19.20;57.50;;;;;;6190434;23;20181;-80
2021/11/07 05:09:00;;;;;;;2.30;1.65;;;19.20;57.50;;;;;;6216457;23;20513;-81
2021/11/07 05:11:26;;;;;;;2.05;1.60;;;19.20;57.50;;;;;;6165190;23;20161;-80
2021/11/07 05:13:52;;;;;;;2.00;1.70;;;19.20;57.60;;;;;;6216691;23;20550;-80
2021/11/07 05:16:18;;;;;;;2.40;1.85;;;19.20;57.50;;;;;;6190489;23;20213;-80
2021/11/07 05:18:44;;;;;;;1.83;1.48;;;19.20;57.50;;;;;;6190318;23;20170;-80
2021/11/07 05:21:10;;;;;;;1.85;1.52;;;19.20;57.50;;;;;;6216645;23;20130;-81
2021/11/07 05:23:36;;;;;;;2.15;1.58;;;19.20;57.50;;;;;;6216534;23;20196;-81
2021/11/07 05:26:02;;;;;;;2.10;1.65;;;19.20;57.50;;;;;;6216609;23;20547;-80
2021/11/07 05:28:28;;;;;;;1.50;1.40;;;19.20;57.40;;;;;;6216436;23;20172;-81
2021/11/07 05:30:53;;;;;;;2.17;1.70;;;19.20;57.50;;;;;;6190037;23;20573;-81
2021/11/07 05:33:19;;;;;;;2.25;1.75;;;19.10;57.50;;;;;;6216433;23;20134;-81
2021/11/07 05:35:45;;;;;;;1.90;1.70;;;19.20;57.50;;;;;;6216734;23;20238;-80
2021/11/07 05:38:11;;;;;;;2.20;1.50;;;19.20;57.50;;;;;;6216861;23;20200;-80
2021/11/07 05:40:37;;;;;;;2.00;1.52;;;19.20;57.50;;;;;;6189931;23;20138;-80
2021/11/07 05:43:03;;;;;;;1.88;1.55;;;19.20;57.60;;;;;;6216400;23;20178;-80
2021/11/07 05:45:28;;;;;;;2.30;1.55;;;19.20;57.50;;;;;;6216398;23;20131;-80
2021/11/07 05:47:54;;;;;;;1.63;1.35;;;19.20;57.50;;;;;;6216623;23;20204;-80
2021/11/07 05:50:21;;;;;;;2.22;1.67;;;19.20;57.50;;;;;;6216837;23;20126;-80
2021/11/07 05:52:46;;;;;;;2.50;1.50;;;19.20;57.50;;;;;;6216581;23;20188;-80
2021/11/07 05:55:12;;;;;;;2.20;1.98;;;19.20;57.50;;;;;;6216203;23;20130;-79
2021/11/07 05:57:38;;;;;;;2.13;1.67;;;19.20;57.60;;;;;;6216673;23;20165;-79
2021/11/07 06:00:06;;;;;;;2.17;1.60;;;19.20;57.50;;;;;;6216509;23;20161;-80
2021/11/07 06:02:31;;;;;;;2.58;1.80;;;19.20;57.50;;;;;;6216572;23;20134;-80
2021/11/07 06:04:57;;;;;;;1.67;1.58;;;19.20;57.50;;;;;;6216252;23;20612;-80
2021/11/07 06:07:23;;;;;;;1.85;1.58;;;19.20;57.50;;;;;;6215874;23;20170;-80
2021/11/07 06:09:49;;;;;;;2.10;1.80;;;19.20;57.50;;;;;;6215857;23;20529;-80
2021/11/07 06:12:15;;;;;;;2.08;1.65;;;19.20;57.50;;;;;;6216059;23;20162;-80
2021/11/07 06:14:40;;;;;;;2.00;1.55;;;19.20;57.50;;;;;;6216071;23;20134;-81
2021/11/07 06:17:06;;;;;;;1.63;1.42;;;19.20;57.40;;;;;;6214651;23;20152;-81
2021/11/07 06:19:32;;;;;;;2.33;1.35;;;19.20;57.50;;;;;;6215877;23;20134;-81
2021/11/07 06:21:58;;;;;;;2.00;1.55;;;19.10;57.40;;;;;;6215899;23;20138;-79
2021/11/07 06:24:26;;;;;;;1.95;1.38;;;19.20;57.40;;;;;;6215931;23;20134;-81
2021/11/07 06:26:54;;;;;;;3.28;1.77;;;19.20;57.30;;;;;;6216038;23;20134;-80
2021/11/07 06:29:20;;;;;;;1.83;1.50;;;19.20;57.40;;;;;;6189835;23;20134;-80
2021/11/07 06:31:52;;;;;;;1.67;1.48;;;19.20;57.40;;;;;;6189662;23;20142;-80
2021/11/07 06:34:18;;;;;;;2.00;1.70;;;19.20;57.60;;;;;;6215918;23;20126;-79
2021/11/07 06:36:44;;;;;;;2.30;1.70;;;19.20;57.50;;;;;;6189566;23;20149;-80
2021/11/07 06:39:10;;;;;;;2.47;1.67;;;19.20;57.60;;;;;;6215564;23;20566;-81
2021/11/07 06:41:36;;;;;;;2.45;1.63;;;19.10;57.50;;;;;;6215620;23;20141;-80
2021/11/07 06:44:02;;;;;;;2.08;1.48;;;19.20;57.50;;;;;;6216222;23;20138;-80
2021/11/07 06:46:27;;;;;;;2.75;1.65;;;19.20;57.50;;;;;;6215796;23;20126;-80
2021/11/07 06:48:53;;;;;;;2.00;1.63;;;19.20;57.50;;;;;;6215761;23;20165;-80
2021/11/07 06:51:20;;;;;;;1.95;1.60;;;19.20;57.50;;;;;;6215750;23;20134;-80
2021/11/07 06:53:46;;;;;;;1.88;1.50;;;19.20;57.60;;;;;;6189648;23;20126;-80
2021/11/07 06:56:12;;;;;;;2.67;1.60;;;19.20;57.50;;;;;;6215832;23;20141;-80
2021/11/07 06:58:38;;;;;;;1.88;1.50;;;19.10;57.50;;;;;;6215721;23;20138;-81
2021/11/07 07:01:03;;;;;;;2.08;1.50;;;19.20;57.50;;;;;;6215622;23;20122;-80
2021/11/07 07:03:29;;;;;;;1.75;1.50;;;19.20;57.60;;;;;;6215768;23;20469;-81
2021/11/07 07:05:55;;;;;;;1.80;1.48;;;19.20;57.60;;;;;;6188848;23;20150;-80
2021/11/07 07:08:24;;;;;;;2.35;1.73;;;19.20;57.60;;;;;;6215273;23;20627;-81
2021/11/07 07:10:56;;;;;;;2.15;1.42;;;19.20;57.50;;;;;;6190246;23;20126;-79
2021/11/07 07:13:30;;;;;;;2.60;1.40;;;19.10;57.30;;;;;;6214575;23;20458;-81
2021/11/07 07:16:07;;;;;;;2.20;1.70;;;19.30;57.20;;;;;;6214221;23;20150;-83
2021/11/07 07:18:45;;;;;;;1.83;1.30;;;19.20;57.30;;;;;;6215637;23;20141;-81
2021/11/07 07:21:27;;;;;;;2.00;1.48;;;19.20;57.10;;;;;;6215544;23;20643;-81
2021/11/07 07:24:14;;;;;;;2.17;1.60;;;19.20;57.10;;;;;;6215424;23;20133;-80
2021/11/07 07:26:51;;;;;;;2.20;1.80;;;19.20;57.00;;;;;;6193183;23;20608;-80
2021/11/07 07:32:00;;;;;;;1.80;1.48;;;19.30;57.10;;;;;;6215615;23;20574;-80
2021/11/07 07:34:27;;;;;;;2.30;1.55;;;19.30;56.90;;;;;;6190644;23;20126;-80
2021/11/07 07:36:53;;;;;;;2.67;1.42;;;19.30;56.70;;;;;;6215858;23;20189;-80
2021/11/07 07:39:19;;;;;;;1.50;1.30;;;19.30;56.60;;;;;;6215442;23;20131;-79
2021/11/07 07:41:45;;;;;;;1.85;1.50;;;19.30;56.70;;;;;;6215798;23;20901;-80
2021/11/07 07:44:11;;;;;;;2.53;1.48;;;19.30;56.70;;;;;;6215660;23;20592;-80
2021/11/07 07:46:41;;;;;;;1.42;1.30;;;19.40;56.50;;;;;;6189007;23;20146;-80
2021/11/07 07:49:07;;;;;;;2.13;1.60;;;19.40;56.60;;;;;;6215805;23;20461;-80
2021/11/07 07:51:33;;;;;;;1.60;1.40;;;19.40;56.50;;;;;;6217439;23;20601;-80
2021/11/07 07:54:02;;;;;;;2.95;1.70;;;19.40;56.40;;;;;;6217543;23;20135;-81
2021/11/07 07:56:28;;;;;;;2.25;1.42;;;19.40;56.40;;;;;;6217553;23;20131;-79
2021/11/07 07:58:54;;;;;;;1.92;1.58;;;19.40;56.20;;;;;;6217332;23;20562;-80
2021/11/07 08:01:20;;;;;;;1.75;1.60;;;19.40;56.20;;;;;;6217482;23;20264;-80
2021/11/07 08:03:45;;;;;;;1.80;1.40;;;19.50;56.10;;;;;;6217830;23;20134;-80
2021/11/07 08:06:11;;;;;;;3.60;1.67;;;19.50;56.10;;;;;;6217279;23;20473;-81
2021/11/07 08:08:37;;;;;;;2.38;1.55;;;19.50;56.10;;;;;;6217059;23;20632;-80
2021/11/07 08:11:04;;;;;;;1.65;1.40;;;19.60;56.20;;;;;;6217635;23;20130;-80
2021/11/07 08:13:29;;;;;;;2.63;1.50;;;19.60;55.90;;;;;;6217632;23;20131;-80
2021/11/07 08:15:55;;;;;;;3.55;1.38;;;19.70;56.10;;;;;;6217609;23;20142;-80
2021/11/07 08:18:21;;;;;;;2.55;1.38;;;19.60;55.70;;;;;;6217495;23;20143;-80
2021/11/07 08:20:47;;;;;;;2.70;1.30;;;19.60;55.80;;;;;;6217241;23;20206;-79
2021/11/07 08:23:14;;;;;;;2.40;1.48;;;19.70;55.80;;;;;;6217811;23;20150;-81
2021/11/07 08:25:41;;;;;;;1.88;1.35;;;19.70;56.00;;;;;;6191473;23;20138;-81
2021/11/07 08:28:07;;;;;;;1.70;1.30;;;19.60;55.80;;;;;;6217563;23;20181;-80
2021/11/07 08:30:35;;;;;;;2.38;1.58;;;19.70;55.90;;;;;;6217692;23;20221;-80
2021/11/07 08:33:01;;;;;;;1.45;1.27;;;19.70;55.90;;;;;;6190647;23;20315;-80
2021/11/07 08:35:27;;;;;;;1.35;1.20;;;19.70;55.60;;;;;;6217193;23;20256;-80
2021/11/07 08:38:05;;;;;;;1.95;1.50;;;19.70;55.80;;;;;;6217755;23;20158;-80
2021/11/07 08:40:35;;;;;;;1.65;1.38;;;19.70;55.80;;;;;;6217077;23;20125;-80
2021/11/07 08:43:09;;;;;;;1.60;1.50;;;19.70;55.60;;;;;;6216973;23;20140;-80
2021/11/07 09:01:44;;;;;;;2.08;1.50;;;19.70;55.50;;;;;;6193552;23;20188;-80
2021/11/07 09:07:13;;;;;;;2.92;1.50;;;19.70;55.60;;;;;;6216450;23;20130;-80
2021/11/07 09:09:40;;;;;;;3.58;1.70;;;19.80;55.70;;;;;;6194193;23;20197;-82
2021/11/07 09:12:07;;;;;;;4.88;1.58;;;19.80;55.90;;;;;;6216402;23;20158;-81
2021/11/07 09:14:36;;;;;;;6.10;1.48;;;19.80;56.00;;;;;;6216470;23;20245;-81
2021/11/07 09:17:03;;;;;;;2.08;1.50;;;19.80;55.70;;;;;;6216799;23;20141;-81
2021/11/07 09:19:32;;;;;;;3.67;1.40;;;19.80;55.60;;;;;;6190525;23;20146;-81
2021/11/07 09:22:06;;;;;;;3.92;1.33;;;19.90;55.60;;;;;;6218970;23;20134;-82
2021/11/07 09:24:36;;;;;;;3.80;1.30;;;19.80;55.40;;;;;;6169993;23;20146;-81
2021/11/07 09:27:09;;;;;;;2.40;1.60;;;19.80;55.60;;;;;;6192238;23;20201;-81
2021/11/07 09:29:57;;;;;;;1.58;1.30;;;19.80;55.70;;;;;;6189652;23;20652;-81
2021/11/07 09:35:15;;;;;;;2.70;1.50;;;19.80;55.60;;;;;;6216331;23;20162;-81
2021/11/07 09:37:47;;;;;;;3.72;1.27;;;19.80;55.50;;;;;;6193169;23;20216;-81
2021/11/07 09:40:15;;;;;;;2.30;1.30;;;19.80;55.50;;;;;;6216101;23;20122;-81
2021/11/07 09:45:36;;;;;;;1.67;1.33;;;19.80;55.90;;;;;;6172715;23;20154;-80
2021/11/07 09:48:10;;;;;;;2.08;1.50;;;19.80;55.50;;;;;;6214972;23;20181;-81
2021/11/07 09:50:35;;;;;;;1.67;1.40;;;19.80;55.70;;;;;;6214514;23;20142;-82
2021/11/07 09:53:02;;;;;;;1.95;1.40;;;19.80;55.80;;;;;;6190439;23;20130;-81
2021/11/07 09:55:29;;;;;;;1.48;1.38;;;19.90;56.00;;;;;;6191143;23;20462;-80
2021/11/07 09:57:56;;;;;;;2.97;1.27;;;19.80;55.80;;;;;;6193550;23;20134;-82
2021/11/07 10:00:27;;;;;;;3.08;1.30;;;19.90;55.90;;;;;;6216664;23;20206;-81
2021/11/07 10:02:52;;;;;;;3.58;1.50;;;19.90;55.80;;;;;;6217133;23;20237;-81
2021/11/07 10:05:19;;;;;;;2.95;1.50;;;19.90;55.90;;;;;;6216394;23;20191;-81
2021/11/07 10:07:46;;;;;;;1.77;1.33;;;19.90;56.20;;;;;;6216668;23;20170;-82
2021/11/07 10:10:20;;;;;;;2.78;1.40;;;19.90;55.80;;;;;;6215764;23;20201;-80
2021/11/07 10:12:50;;;;;;;1.95;1.45;;;19.90;56.00;;;;;;6190316;23;20153;-80
2021/11/07 10:15:34;;;;;;;3.35;1.60;;;19.90;56.00;;;;;;6216219;23;20126;-81
2021/11/07 10:18:05;;;;;;;2.30;1.77;;;19.90;56.30;;;;;;6192883;23;20134;-81
2021/11/07 10:20:36;;;;;;;2.08;1.40;;;19.90;56.20;;;;;;6214541;23;20170;-80
2021/11/07 10:23:10;;;;;;;2.38;1.40;;;20.00;56.60;;;;;;6189944;23;20165;-81
2021/11/07 10:25:44;;;;;;;2.40;1.38;;;19.90;56.00;;;;;;6215738;23;20131;-82
2021/11/07 10:28:12;;;;;;;2.40;1.40;;;19.90;55.90;;;;;;6189600;23;20507;-81
2021/11/07 10:30:44;;;;;;;1.95;1.35;;;20.00;55.70;;;;;;6216527;23;20230;-80
2021/11/07 10:33:33;;;;;;;4.00;1.35;;;19.90;55.80;;;;;;6191581;23;20176;-80
2021/11/07 10:36:39;;;;;;;3.35;1.48;;;20.00;55.70;;;;;;6216632;23;20181;-80
2021/11/07 10:39:03;;;;;;;2.42;1.40;;;20.00;55.80;;;;;;6215094;23;20154;-81
2021/11/07 10:47:11;;;;;;;2.85;1.35;;;19.90;56.10;;;;;;6215566;23;20134;-81
2021/11/07 10:52:25;;;;;;;4.10;1.63;;;19.90;55.80;;;;;;6215037;23;20138;-81
2021/11/07 10:54:52;;;;;;;3.58;1.40;;;19.90;56.00;;;;;;6189077;23;20184;-81
2021/11/07 10:57:21;;;;;;;1.52;1.23;;;19.90;56.20;;;;;;6215353;23;20141;-80
2021/11/07 11:00:11;;;;;;;2.33;1.40;;;19.90;56.20;;;;;;6215580;23;20169;-81
2021/11/07 11:02:39;;;;;;;2.03;1.52;;;19.90;56.20;;;;;;6214946;23;20160;-81
2021/11/07 11:05:08;;;;;;;2.42;1.30;;;19.90;56.10;;;;;;6189165;23;20130;-80
2021/11/07 11:07:48;;;;;;;9.20;1.50;;;19.90;56.30;;;;;;6189285;23;20684;-80
2021/11/07 11:10:18;;;;;;;3.67;1.45;;;19.90;56.40;;;;;;6215438;23;20197;-80
2021/11/07 11:13:15;;;;;;;5.20;1.38;;;19.90;56.60;;;;;;6190294;23;20134;-81
2021/11/07 11:15:52;;;;;;;3.28;1.17;;;20.00;56.60;;;;;;6192299;23;20130;-80
2021/11/07 11:21:36;;;;;;;3.45;1.30;;;19.90;56.80;;;;;;6215357;23;20170;-80
2021/11/07 11:26:58;;;;;;;2.97;1.20;;;19.90;56.90;;;;;;6175421;23;20585;-80
2021/11/07 11:29:40;;;;;;;3.42;1.30;;;19.90;56.50;;;;;;6191624;23;20198;-81
2021/11/07 11:32:15;;;;;;;3.00;1.60;;;19.90;56.70;;;;;;6195050;23;20196;-80
2021/11/07 11:34:48;;;;;;;9.57;1.75;;;19.90;56.70;;;;;;6193408;23;20268;-80
2021/11/07 11:37:22;;;;;;;3.47;1.40;;;19.90;57.10;;;;;;6192661;23;20577;-80
2021/11/07 11:39:59;;;;;;;3.13;1.40;;;19.90;56.60;;;;;;6167758;23;20146;-81
2021/11/07 11:42:33;;;;;;;3.65;1.40;;;19.90;56.40;;;;;;6217495;23;20195;-80
2021/11/07 11:44:59;;;;;;;4.68;1.60;;;19.80;56.70;;;;;;6192157;23;20133;-81
2021/11/07 11:47:53;;;;;;;4.28;1.42;;;19.90;57.00;;;;;;6190444;23;20201;-82
2021/11/07 11:50:26;;;;;;;8.50;1.58;;;19.90;56.80;;;;;;6217152;23;20126;-81
2021/11/07 11:55:42;;;;;;;2.78;1.50;;;19.90;57.00;;;;;;6194956;23;20245;-80
2021/11/07 11:58:18;;;;;;;2.58;1.38;;;19.90;57.10;;;;;;6192028;23;20180;-81
2021/11/07 12:00:57;;;;;;;3.67;1.38;;;19.90;57.10;;;;;;6217644;23;20200;-81
2021/11/07 12:06:27;;;;;;;2.88;1.05;;;19.90;56.70;;;;;;6216871;23;20565;-80
2021/11/07 12:11:56;;;;;;;3.10;1.27;;;19.90;56.80;;;;;;6184988;23;20150;-81
2021/11/07 12:14:34;;;;;;;3.40;1.30;;;19.90;57.10;;;;;;6162073;23;20478;-80
2021/11/07 12:17:04;;;;;;;2.78;1.40;;;19.90;57.10;;;;;;6186700;23;20127;-81
2021/11/07 12:19:44;;;;;;;3.30;1.70;;;19.90;57.10;;;;;;6186942;23;20327;-81
2021/11/07 12:22:13;;;;;;;3.05;1.30;;;19.90;57.10;;;;;;6185354;23;20137;-81
2021/11/07 12:25:00;;;;;;;4.00;1.55;;;19.90;57.10;;;;;;6185405;23;20127;-81
2021/11/07 12:27:29;;;;;;;5.85;1.33;;;19.90;57.10;;;;;;6185203;23;20166;-81
2021/11/07 12:29:59;;;;;;;5.72;1.70;;;19.90;57.40;;;;;;6185378;23;20590;-81
2021/11/07 12:32:31;;;;;;;3.90;1.50;;;19.90;57.20;;;;;;6185349;23;20563;-82
2021/11/07 12:35:09;;;;;;;2.88;1.30;;;19.90;57.30;;;;;;6187043;23;20131;-81
2021/11/07 12:40:45;;;;;;;2.72;1.15;;;19.80;57.70;;;;;;6186035;23;20470;-81
2021/11/07 12:43:34;;;;;;;4.85;1.45;;;19.80;57.30;;;;;;6185598;23;20139;-81
2021/11/07 12:46:18;;;;;;;3.63;1.48;;;19.80;57.40;;;;;;6187292;23;20135;-81
2021/11/07 12:48:49;;;;;;;3.25;1.20;;;19.80;57.20;;;;;;6186554;23;20197;-81
2021/11/07 12:51:20;;;;;;;10.48;2.03;;;19.80;57.30;;;;;;6185389;23;20504;-81
2021/11/07 12:54:25;;;;;;;4.70;1.42;;;19.80;57.30;;;;;;6185584;23;20130;-81
2021/11/07 12:57:12;;;;;;;3.40;1.70;;;19.80;57.30;;;;;;6186692;23;20225;-81
2021/11/07 13:00:06;;;;;;;2.65;1.63;;;19.90;57.70;;;;;;6165602;23;20216;-81
2021/11/07 13:02:32;;;;;;;1.90;1.45;;;19.80;57.60;;;;;;6186979;23;20499;-81
2021/11/07 13:05:07;;;;;;;6.70;1.77;;;19.80;57.60;;;;;;6185282;23;20574;-81
2021/11/07 13:07:56;;;;;;;4.07;1.30;;;19.80;57.50;;;;;;6161388;23;20178;-81
2021/11/07 13:10:41;;;;;;;1.30;1.20;;;19.80;57.20;;;;;;6214009;23;20251;-81
2021/11/07 13:13:16;;;;;;;2.45;1.25;;;19.80;57.30;;;;;;6192339;23;20134;-81
2021/11/07 13:21:29;;;;;;;2.28;1.40;;;19.80;57.30;;;;;;6192787;23;20217;-80
2021/11/07 13:24:10;;;;;;;3.00;1.60;;;19.80;57.60;;;;;;6194058;23;20138;-81
2021/11/07 13:26:48;;;;;;;3.30;1.60;;;19.80;57.30;;;;;;6192704;23;20174;-81
2021/11/07 13:29:28;;;;;;;2.45;1.42;;;19.80;57.50;;;;;;6216753;23;20200;-81
2021/11/07 13:34:32;;;;;;;4.43;1.50;;;19.80;57.50;;;;;;6192271;23;20135;-80
2021/11/07 13:37:01;;;;;;;1.88;1.52;;;19.80;57.60;;;;;;6164526;23;20193;-81
2021/11/07 13:39:30;;;;;;;2.47;1.17;;;19.80;58.00;;;;;;6189806;23;20169;-81
2021/11/07 13:41:58;;;;;;;3.42;1.40;;;19.80;57.70;;;;;;6189631;23;20505;-82
2021/11/07 13:44:27;;;;;;;2.20;1.15;;;19.80;57.90;;;;;;6153450;23;20148;-81
2021/11/07 13:46:59;;;;;;;4.50;1.95;;;19.80;57.70;;;;;;6154370;23;20175;-80
2021/11/07 13:49:25;;;;;;;4.45;1.35;;;19.80;57.40;;;;;;6154499;23;20455;-81
2021/11/07 13:51:55;;;;;;;3.15;1.48;;;19.80;57.50;;;;;;6155353;23;20151;-80
2021/11/07 13:54:21;;;;;;;1.98;1.35;;;19.90;57.80;;;;;;6154476;23;20148;-80
2021/11/07 13:56:47;;;;;;;2.65;1.58;;;19.80;57.40;;;;;;6128871;23;20230;-80
2021/11/07 13:59:31;;;;;;;2.05;1.50;;;19.80;57.30;;;;;;6129319;23;20190;-80
2021/11/07 14:01:57;;;;;;;2.40;1.30;;;19.80;57.30;;;;;;6104492;23;20171;-82
2021/11/07 14:04:22;;;;;;;2.38;1.33;;;19.90;57.50;;;;;;6154257;23;20148;-80
2021/11/07 14:06:49;;;;;;;4.53;1.58;;;19.90;57.40;;;;;;6129744;23;20282;-82
2021/11/07 14:09:14;;;;;;;5.13;1.50;;;19.90;57.50;;;;;;6154124;23;20238;-84